Tiempo atmosférico en la estación meteorológica de Amorebieta--Etxano, Bizkaia (100 m.)



Fecha
DESCASC
Temp. máxima en grados centígrados (hora)
DESCASC
Temp. mínima en grados centígrados (hora)
DESCASC
Temp. media en grados centígrados
DESCASC
Racha de viento máxima en m/sg (hora)
DESCASC
Velocidad máxima media en intervalos de 10 minutos(hora)
DESCASC
Precipitaciones diarias en mm
DESCASC
Precipitaciones de 00:00 a 06:00 en mm
DESCASC
Precipitaciones de 06:00 a 12:00 en mm
DESCASC
Precipitaciones de 12:00 a 18:00 en mm
DESCASC
Precipitaciones de 18:00 a 24:00 en mm
DESCASC
26-11-2020 17.5 (14:10) 13.3 (01:50) 15.4 13.06 (23:50) 6.11 (06:40) 0 0 0 0 0
25-11-2020 15.9 (15:20) 9.9 (04:50) 12.9 11.67 (14:50) 5.56 (14:50) 0 0 0 0 0
24-11-2020 17.3 (14:20) 2.4 (05:50) 9.8 7.22 (23:59) 2.78 (23:59) 0 0 0 0 0
23-11-2020 16.2 (14:20) 3.6 (09:00) 9.9 2.5 (17:40) 1.67 (17:40) 0 0 0 0 0
22-11-2020 16.8 (14:40) 1.1 (00:00) 8.9 3.89 (15:20) 2.78 (15:10) 0 0 0 0 0
21-11-2020 14.2 (14:40) 3.2 (00:00) 8.7 5.28 (15:10) 3.61 (15:10) 0 0 0 0 0
20-11-2020 14.8 (13:40) 4.5 (00:00) 9.7 7.22 (14:00) 3.33 (15:00) 0.2 0 0.2 0 0
19-11-2020 13 (08:40) 8.9 (00:00) 10.9 6.67 (08:50) 3.89 (09:00) 4 0 2.4 1.4 0.2
18-11-2020 23.2 (15:10) 10.2 (00:00) 16.7 8.61 (02:30) 3.61 (02:30) 0 0 0 0 0
17-11-2020 21.3 (15:20) 5.8 (00:00) 13.5 5.28 (23:30) 2.22 (13:40) 0 0 0 0 0
16-11-2020 16.3 (15:30) 7.9 (00:00) 12.1 4.17 (03:30) 2.5 (03:30) 3 2.2 0.8 0 0
15-11-2020 22.6 (13:40) 12.5 (00:00) 17.6 13.06 (13:30) 6.67 (14:20) 6.4 0 0 0.6 5.8
14-11-2020 20.7 (15:10) 11.3 (00:00) 16 12.5 (11:40) 6.39 (13:10) 0 0 0 0 0
13-11-2020 20.5 (15:10) 11.2 (00:00) 15.8 8.89 (23:59) 5 (23:59) 0 0 0 0 0
12-11-2020 22.4 (15:10) 7.6 (00:00) 15 5.28 (23:50) 2.22 (23:20) 0 0 0 0 0
11-11-2020 20.3 (15:20) 6.5 (00:00) 13.4 8.61 (11:50) 4.17 (12:50) 0 0 0 0 0
10-11-2020 17.2 (12:50) 9.4 (00:00) 13.3 3.89 (15:30) 2.22 (14:20) 6.4 5.2 1.2 0 0
09-11-2020 21.8 (15:20) 9.8 (00:00) 15.8 10 (01:40) 5.56 (01:40) 0 0 0 0 0
08-11-2020 20.9 (14:50) 10.2 (00:00) 15.5 10.28 (11:10) 5 (23:40) 0 0 0 0 0
07-11-2020 20.2 (00:10) 11.2 (00:00) 15.7 15 (00:10) 6.67 (00:10) 14.2 0 14.2 0 0
06-11-2020 21.5 (14:10) 16.7 (00:00) 19.1 20.83 (20:20) 10 (23:00) 0 0 0 0 0
05-11-2020 19.5 (14:40) 5.9 (00:00) 12.7 7.22 (23:00) 3.89 (15:40) 0 0 0 0 0
04-11-2020 12.4 (13:20) 7.6 (00:00) 10 7.78 (13:30) 3.89 (14:20) 3.2 2.8 0.4 0 0
03-11-2020 12.8 (12:00) 7.8 (00:00) 10.3 7.5 (12:40) 4.72 (13:20) 11.2 7 2.4 0.8 1
02-11-2020 25.6 (14:10) 12.1 (00:00) 18.9 15.83 (15:00) 9.72 (15:00) 3.4 0 0 0 3.4
01-11-2020 24.9 (13:50) 11.6 (00:00) 18.3 6.67 (12:30) 3.61 (12:30) 0 0 0 0 0
31-10-2020 25.7 (15:20) 8.3 (00:00) 17 7.5 (11:30) 3.89 (11:30) 0 0 0 0 0
30-10-2020 23.3 (14:20) 5.7 (00:00) 14.5 5.56 (15:10) 4.17 (15:10) 0 0 0 0 0

Gráficas

Temp. máximas Temp. mínimas Temp. medias Precipitaciones Rachas de viento máximas Velocidades máximas media en intervalos de 10 minutos

Datos horarios

Fecha y hora oficial Temperatura (ºC) Velocidad del viento (km/h) Dirección del viento Racha (km/h) Dirección de racha Precipitación (mm) Presión (hPa) Tendencia (hPa) Humedad (%)
2020-11-28 23:00:00 9.3 5 Sur 9 Sur 0 -- -- 87
2020-11-28 22:00:00 8.3 3 Norte 5 Sudoeste 0 -- -- 93
2020-11-28 21:00:00 8.7 3 Norte 5 Noroeste 0 -- -- 91
2020-11-28 20:00:00 10.1 3 Sudeste 6 Sur 0 -- -- 87
2020-11-28 19:00:00 10.9 0 Calma 7 Este 0 -- -- 84
2020-11-28 18:00:00 12.4 3 Sudeste 6 Sur 0 -- -- 81
2020-11-28 17:00:00 15.5 2 Sur 6 Sudeste 0 -- -- 72
2020-11-28 16:00:00 18.4 4 Sur 12 Sudeste 0 -- -- 62
2020-11-28 15:00:00 18.8 6 Sudeste 13 Sudeste 0 -- -- 54
2020-11-28 14:00:00 18.3 6 Sudeste 17 Este 0 -- -- 56
2020-11-28 13:00:00 16.5 2 Noroeste 6 Noroeste 0 -- -- 70
2020-11-28 12:00:00 13 2 Noroeste 5 Noroeste 0 -- -- 83
2020-11-28 11:00:00 9 0 Calma 4 Este 0 -- -- 98
2020-11-28 10:00:00 6.4 2 Nordeste 4 Sudoeste 0 -- -- 100
2020-11-28 09:00:00 5 0 Calma 7 Sudeste 0 -- -- 99
2020-11-28 08:00:00 5.4 4 Sudeste 6 Sudeste 0 -- -- 99
2020-11-28 07:00:00 5.4 3 Sudeste 6 Este 0 -- -- 99
2020-11-28 06:00:00 5.7 3 Sudeste 5 Este 0 -- -- 99
2020-11-28 05:00:00 5.9 0 Calma 2 Este 0 -- -- 98
2020-11-28 04:00:00 6.2 0 Calma 4 Sur 0 -- -- 98
2020-11-28 03:00:00 6.6 3 Sudeste 6 Sudeste 0 -- -- 97
2020-11-28 02:00:00 6.9 0 Calma 4 Sudeste 0 -- -- 96
2020-11-28 01:00:00 7.9 3 Sudeste 6 Sudeste 0 -- -- 94
2020-11-28 00:00:00 8.5 4 Sudeste 9 Este 0 -- -- 94
2020-11-27 23:00:00 8.8 3 Sudeste 8 Sudeste 0 -- -- 94
2020-11-27 22:00:00 9 4 Sudeste 6 Sudeste 0 -- -- 93
2020-11-27 21:00:00 9.6 0 Calma 8 Este 0 -- -- 90
2020-11-27 20:00:00 10.8 3 Sudeste 9 Sudeste 0 -- -- 88
2020-11-27 19:00:00 12 3 Este 10 Este 0 -- -- 84
2020-11-27 18:00:00 14 0 Calma 4 Oeste 0 -- -- 78
2020-11-27 17:00:00 15.8 3 Sudoeste 5 Sudoeste 0 -- -- 70
2020-11-27 16:00:00 17.7 3 Nordeste 6 Noroeste 0 -- -- 61
2020-11-27 15:00:00 17.8 0 Calma 6 Norte 0 -- -- 60
2020-11-27 14:00:00 17.6 2 Nordeste 10 Sur 0 -- -- 61
2020-11-27 13:00:00 16.6 4 Sudeste 15 Este 0 -- -- 67
2020-11-27 12:00:00 16.2 4 Sudeste 21 Este 0 -- -- 69
2020-11-27 11:00:00 15.4 6 Sudeste 17 Este 0 -- -- 71
2020-11-27 10:00:00 15.4 5 Sudeste 21 Este 0 -- -- 66
2020-11-27 09:00:00 14 5 Sudeste 16 Sudeste 0 -- -- 75
2020-11-27 08:00:00 12.2 3 Sur 9 Sur 0 -- -- 85
2020-11-27 07:00:00 12.6 3 Sur 5 Sur 0 -- -- 82
2020-11-27 06:00:00 13.2 3 Noroeste 6 Sur 0 -- -- 79
2020-11-27 05:00:00 15.1 3 Norte 11 Sur 0 -- -- 69
2020-11-27 04:00:00 16.3 3 Sudoeste 41 Sudeste 0 -- -- 64
2020-11-27 03:00:00 16.8 19 Sudeste 44 Sudeste 0 -- -- 62
2020-11-27 02:00:00 16.7 18 Sudeste 52 Sur 0 -- -- 64
2020-11-27 01:00:00 16.7 23 Sudeste 48 Sudeste 0 -- -- 63
2020-11-27 00:00:00 16.8 20 Sudeste 47 Sudeste 0 -- -- 63
2020-11-26 23:00:00 16.6 13 Sudeste 47 Sur 0 -- -- 63
2020-11-26 22:00:00 16.6 16 Sudeste 37 Sudeste 0 -- -- 63
2020-11-26 21:00:00 16.3 14 Sudeste 35 Sudeste 0 -- -- 63
2020-11-26 20:00:00 15.8 7 Sudeste 26 Sudeste 0 -- -- 64
2020-11-26 19:00:00 15.4 5 Este 21 Sudeste 0 -- -- 66
2020-11-26 18:00:00 15.5 4 Este 17 Sudeste 0 -- -- 66
2020-11-26 17:00:00 16.1 2 Este 16 Sudeste 0 -- -- 64
2020-11-26 16:00:00 17 5 Sudeste 33 Sur 0 -- -- 61
2020-11-26 15:00:00 17.1 12 Sur 37 Sudeste 0 -- -- 60
2020-11-26 14:00:00 17.2 13 Sur 40 Sudeste 0 -- -- 59
2020-11-26 13:00:00 17.1 20 Sudeste 40 Sur 0 -- -- 58
2020-11-26 12:00:00 17.2 8 Sudeste 36 Este 0 -- -- 58
2020-11-26 11:00:00 16.6 13 Sudeste 35 Este 0 -- -- 59
2020-11-26 10:00:00 15.2 12 Sudeste 28 Sudeste 0 -- -- 63
2020-11-26 09:00:00 14.7 11 Sudeste 26 Sudeste 0 -- -- 62
2020-11-26 08:00:00 14.4 13 Sudeste 36 Sur 0 -- -- 63
2020-11-26 07:00:00 14 18 Sudeste 39 Sudeste 0 -- -- 63
2020-11-26 06:00:00 14 12 Sudeste 42 Sudeste 0 -- -- 62
2020-11-26 05:00:00 14.3 16 Sudeste 46 Sur 0 -- -- 62
2020-11-26 04:00:00 14.4 20 Sudeste 41 Sur 0 -- -- 63
2020-11-26 03:00:00 13.7 7 Este 39 Sur 0 -- -- 66
2020-11-26 02:00:00 13.4 6 Sudeste 22 Sudeste 0 -- -- 67
2020-11-26 01:00:00 13.5 8 Sudeste 31 Sudeste 0 -- -- 66
2020-11-26 00:00:00 13.7 11 Sudeste 28 Sudeste 0 -- -- 62
2020-11-25 23:00:00 13.3 12 Sudeste 23 Sudeste 0 -- -- 64
2020-11-25 22:00:00 10.2 2 Sur 8 Sudeste 0 -- -- 76
2020-11-25 21:00:00 11.3 5 Sudeste 13 Sudeste 0 -- -- 70
2020-11-25 20:00:00 11.9 5 Sudeste 18 Este 0 -- -- 68
2020-11-25 19:00:00 12.6 8 Este 15 Este 0 -- -- 66
2020-11-25 18:00:00 12.9 6 Este 24 Este 0 -- -- 65
2020-11-25 17:00:00 14.5 4 Sudeste 27 Sudeste 0 -- -- 60
2020-11-25 16:00:00 15.6 13 Sur 31 Sur 0 -- -- 55
2020-11-25 15:00:00 15.8 18 Sur 42 Sudeste 0 -- -- 54
2020-11-25 14:00:00 15.1 16 Sudeste 39 Sur 0 -- -- 56
2020-11-25 13:00:00 14.8 13 Sudeste 31 Sudeste 0 -- -- 60
2020-11-25 12:00:00 13.7 11 Sudeste 29 Sudeste 0 -- -- 63
2020-11-25 11:00:00 12.1 14 Sudeste 36 Sudeste 0 -- -- 68
2020-11-25 10:00:00 10.7 10 Sudeste 34 Sudeste 0 -- -- 73
2020-11-25 09:00:00 10.2 13 Sudeste 30 Sudeste 0 -- -- 74
2020-11-25 08:00:00 10.3 11 Este 32 Este 0 -- -- 73
2020-11-25 07:00:00 10.1 10 Sudeste 26 Sur 0 -- -- 73
2020-11-25 06:00:00 10.2 9 Sudeste 26 Sudeste 0 -- -- 72
2020-11-25 05:00:00 10.1 7 Sudeste 25 Sudeste 0 -- -- 72
2020-11-25 04:00:00 11 9 Sudeste 27 Sudeste 0 -- -- 67
2020-11-25 03:00:00 10.6 5 Sur 24 Sudeste 0 -- -- 68
2020-11-25 02:00:00 12.1 10 Sudeste 37 Este 0 -- -- 62
2020-11-25 01:00:00 11.5 5 Oeste 24 Este 0 -- -- 65
2020-11-25 00:00:00 11.8 10 Sudeste 26 Este 0 -- -- 63
2020-11-24 23:00:00 8.5 4 Norte 14 Este 0 -- -- 78
2020-11-24 22:00:00 10.6 6 Este 13 Este 0 -- -- 67
2020-11-24 21:00:00 9.7 3 Sur 14 Sudoeste 0 -- -- 73
2020-11-24 20:00:00 8.4 4 Sur 7 Este 0 -- -- 83
2020-11-24 19:00:00 9.8 3 Sur 8 Sudeste 0 -- -- 77
2020-11-24 18:00:00 11.7 3 Sudoeste 9 Sudeste 0 -- -- 71
2020-11-24 17:00:00 14.6 3 Sur 9 Sur 0 -- -- 61
2020-11-24 16:00:00 16.7 2 Sudoeste 12 Este 0 -- -- 62
2020-11-24 15:00:00 16.8 3 Sur 13 Este 0 -- -- 55
2020-11-24 14:00:00 16.9 6 Sur 17 Este 0 -- -- 51
2020-11-24 13:00:00 15.1 4 Sudeste 19 Este 0 -- -- 50
2020-11-24 12:00:00 14.4 6 Este 13 Sudeste 0 -- -- 53
2020-11-24 11:00:00 12.8 3 Sur 10 Sudeste 0 -- -- 67
2020-11-24 10:00:00 9 4 Sudeste 14 Este 0 -- -- 79
2020-11-24 09:00:00 6.2 3 Noroeste 8 Sudoeste 0 -- -- 87
2020-11-24 08:00:00 4.3 2 Sur 8 Sudoeste 0 -- -- 97
2020-11-24 07:00:00 2.6 3 Norte 6 Sur 0 -- -- 99
2020-11-24 06:00:00 2.5 2 Norte 5 Norte 0 -- -- 99
2020-11-24 05:00:00 2.6 0 Calma 3 Sur 0 -- -- 98
2020-11-24 04:00:00 2.7 0 Calma 3 Este 0 -- -- 97
2020-11-24 03:00:00 3.1 0 Calma 2 Sur 0 -- -- 97
2020-11-24 02:00:00 3.4 0 Calma 3 Norte 0 -- -- 97
2020-11-24 01:00:00 3.8 0 Calma 3 Sudeste 0 -- -- 95
2020-11-24 00:00:00 4.6 0 Calma 6 Sudeste 0 -- -- 94
2020-11-23 23:00:00 5.4 3 Sudeste 7 Sur 0 -- -- 93
2020-11-23 22:00:00 5.3 3 Sur 6 Sur 0 -- -- 91
2020-11-23 21:00:00 6.5 3 Este 7 Sudeste 0 -- -- 88
2020-11-23 20:00:00 7.1 4 Sudeste 8 Sudeste 0 -- -- 85
2020-11-23 19:00:00 8.1 4 Sudeste 6 Sudeste 0 -- -- 80
2020-11-23 18:00:00 9.8 3 Sudeste 9 Este 0 -- -- 70
2020-11-23 17:00:00 12.1 4 Sudeste 6 Sur 0 -- -- 59
2020-11-23 16:00:00 15.4 3 Sur 6 Sudeste 0 -- -- 58
2020-11-23 15:00:00 16 4 Sudoeste 8 Sur 0 -- -- 51
2020-11-23 14:00:00 15.4 0 Calma 8 Sur 0 -- -- 53
2020-11-23 13:00:00 13.4 5 Sur 8 Sur 0 -- -- 73
2020-11-23 12:00:00 10.4 2 Este 7 Sur 0 -- -- 83
2020-11-23 11:00:00 6.8 0 Calma 5 Sur 0 -- -- 100
2020-11-23 10:00:00 4.4 0 Calma 4 Sudoeste 0 -- -- 100
2020-11-23 09:00:00 3.6 0 Calma 5 Sur 0 -- -- 100
2020-11-23 08:00:00 3.7 2 Sur 3 Sur 0 -- -- 100
2020-11-23 07:00:00 3.8 0 Calma 3 Este 0 -- -- 100
2020-11-23 06:00:00 3.9 0 Calma 4 Norte 0 -- -- 99
2020-11-23 05:00:00 4.1 0 Calma 8 Sur 0 -- -- 99
2020-11-23 04:00:00 4.4 3 Este 6 Este 0 -- -- 98
2020-11-23 03:00:00 5 0 Calma 6 Sudeste 0 -- -- 98
2020-11-23 02:00:00 5.3 0 Calma 5 Este 0 -- -- 97
2020-11-23 01:00:00 5.9 0 Calma 2 Este 0 -- -- 96
2020-11-23 00:00:00 6.3 0 Calma 3 Nordeste 0 -- -- 96
2020-11-22 23:00:00 6.2 0 Calma 4 Sudeste 0 -- -- 96
2020-11-22 22:00:00 5.8 3 Sudeste 5 Sudeste 0 -- -- 96
2020-11-22 21:00:00 6.5 2 Sudeste 7 Sudeste 0 -- -- 93
2020-11-22 20:00:00 7.4 3 Sudeste 6 Sudeste 0 -- -- 91
2020-11-22 19:00:00 8.5 0 Calma 3 Este 0 -- -- 87
2020-11-22 18:00:00 10.3 0 Calma 4 Sudeste 0 -- -- 80
2020-11-22 17:00:00 13.8 3 Sudoeste 12 Oeste 0 -- -- 66
2020-11-22 16:00:00 15.8 8 Oeste 14 Oeste 0 -- -- 55
2020-11-22 15:00:00 16.5 9 Oeste 13 Oeste 0 -- -- 52
2020-11-22 14:00:00 16.3 4 Oeste 9 Oeste 0 -- -- 53
2020-11-22 13:00:00 14.4 3 Oeste 7 Oeste 0 -- -- 54
2020-11-22 12:00:00 10.9 0 Calma 4 Sudoeste 0 -- -- 69
2020-11-22 11:00:00 6 0 Calma 4 Noroeste 0 -- -- 100
2020-11-22 10:00:00 3.1 0 Calma 2 Sudeste 0 -- -- 100
2020-11-22 09:00:00 1.2 0 Calma 2 Nordeste 0 -- -- 100
2020-11-22 08:00:00 1.3 0 Calma 4 Sudeste 0 -- -- 100
2020-11-22 07:00:00 1.2 0 Calma 4 Sudeste 0 -- -- 99
2020-11-22 06:00:00 1.5 0 Calma 6 Este 0 -- -- 98
2020-11-22 05:00:00 1.6 0 Calma 4 Norte 0 -- -- 98
2020-11-22 04:00:00 2 3 Norte 10 Sur 0 -- -- 98
2020-11-22 03:00:00 2.1 0 Calma 4 Sudeste 0 -- -- 98
2020-11-22 02:00:00 2.7 0 Calma 3 Norte 0 -- -- 98
2020-11-22 01:00:00 3.3 0 Calma 6 Sudeste 0 -- -- 98
2020-11-22 00:00:00 3.5 5 Sudeste 8 Sudeste 0 -- -- 98
2020-11-21 23:00:00 3.7 3 Sudeste 8 Este 0 -- -- 97
2020-11-21 22:00:00 4.6 2 Sudeste 8 Sudeste 0 -- -- 96
2020-11-21 21:00:00 5 4 Sudeste 6 Sur 0 -- -- 95
2020-11-21 20:00:00 5.4 2 Sur 8 Sudeste 0 -- -- 94
2020-11-21 19:00:00 6.7 4 Sudeste 8 Sudeste 0 -- -- 91
2020-11-21 18:00:00 8.5 3 Este 7 Sudoeste 0 -- -- 84
2020-11-21 17:00:00 11.4 4 Oeste 16 Norte 0 -- -- 71
2020-11-21 16:00:00 12.9 5 Norte 19 Norte 0 -- -- 65
2020-11-21 15:00:00 13.7 6 Noroeste 16 Norte 0 -- -- 60
2020-11-21 14:00:00 13.6 4 Oeste 10 Oeste 0 -- -- 63
2020-11-21 13:00:00 11.1 3 Nordeste 8 Sudoeste 0 -- -- 70
2020-11-21 12:00:00 7.1 2 Sudoeste 5 Sudoeste 0 -- -- 100
2020-11-21 11:00:00 4.5 0 Calma 4 Nordeste 0 -- -- 100
2020-11-21 10:00:00 3.5 3 Este 6 Este 0 -- -- 100
2020-11-21 09:00:00 3.3 3 Sur 5 Sudeste 0 -- -- 100
2020-11-21 08:00:00 3.3 0 Calma 3 Sur 0 -- -- 100
2020-11-21 07:00:00 3.5 0 Calma 4 Sudeste 0 -- -- 100
2020-11-21 06:00:00 3.5 3 Sudeste 5 Sudeste 0 -- -- 100
2020-11-21 05:00:00 3.5 3 Sudeste 5 Sudeste 0 -- -- 100
2020-11-21 04:00:00 3.4 0 Calma 5 Este 0 -- -- 100
2020-11-21 03:00:00 3.8 0 Calma 5 Sudeste 0 -- -- 99
2020-11-21 02:00:00 4.1 0 Calma 4 Sudeste 0 -- -- 99
2020-11-21 01:00:00 4.4 2 Este 4 Este 0 -- -- 99
2020-11-21 00:00:00 4.5 0 Calma 5 Este 0 -- -- 98
2020-11-20 23:00:00 4.8 0 Calma 4 Este 0 -- -- 98
2020-11-20 22:00:00 5.2 0 Calma 4 Este 0 -- -- 96
2020-11-20 21:00:00 5.9 0 Calma 4 Sur 0 -- -- 95
2020-11-20 20:00:00 6.9 3 Sudeste 5 Nordeste 0 -- -- 93
2020-11-20 19:00:00 8.1 0 Calma 5 Este 0 -- -- 89
2020-11-20 18:00:00 9.6 0 Calma 7 Sudeste 0 -- -- 87
2020-11-20 17:00:00 11.7 4 Sudeste 13 Nordeste 0 -- -- 80
2020-11-20 16:00:00 12.8 4 Este 10 Nordeste 0 -- -- 70
2020-11-20 15:00:00 12.6 12 Nordeste 21 Nordeste 0 -- -- 71
2020-11-20 14:00:00 13.4 8 Norte 26 Nordeste 0 -- -- 75
2020-11-20 13:00:00 14.2 5 Sur 13 Sudoeste 0 -- -- 77
2020-11-20 12:00:00 11.3 0 Calma 10 Noroeste 0.2 -- -- 94
2020-11-20 11:00:00 10.2 3 Noroeste 10 Noroeste 0 -- -- 100
2020-11-20 10:00:00 9.4 2 Noroeste 7 Norte 0 -- -- 100
2020-11-20 09:00:00 8.9 5 Norte 10 Oeste 0 -- -- 100
2020-11-20 08:00:00 8.8 2 Nordeste 6 Nordeste 0 -- -- 100
2020-11-20 07:00:00 8.9 0 Calma 5 Sur 0 -- -- 100
2020-11-20 06:00:00 8.9 2 Sur 5 Sur 0 -- -- 100
2020-11-20 05:00:00 9 2 Sudeste 3 Este 0 -- -- 100
2020-11-20 04:00:00 9.4 0 Calma 3 Sur 0 -- -- 100
2020-11-20 03:00:00 9.5 0 Calma 4 Nordeste 0 -- -- 100
2020-11-20 02:00:00 9.5 2 Norte 6 Noroeste 0 -- -- 100
2020-11-20 01:00:00 9.7 0 Calma 3 Oeste 0 -- -- 100
2020-11-20 00:00:00 9.7 3 Norte 9 Noroeste 0 -- -- 100
2020-11-19 23:00:00 9.7 3 Oeste 6 Este 0.2 -- -- 99
2020-11-19 22:00:00 9.8 2 Oeste 6 Noroeste 0 -- -- 99
2020-11-19 21:00:00 9.6 0 Calma 4 Sudoeste 0 -- -- 98
2020-11-19 20:00:00 10.2 0 Calma 3 Sur 0 -- -- 97
2020-11-19 19:00:00 10.4 0 Calma 4 Oeste 0 -- -- 97
2020-11-19 18:00:00 10.6 3 Noroeste 11 Norte 0 -- -- 96
2020-11-19 17:00:00 11 4 Oeste 17 Norte 0 -- -- 96
2020-11-19 16:00:00 11.4 9 Norte 19 Norte 0.2 -- -- 93
2020-11-19 15:00:00 12.3 5 Noroeste 20 Noroeste 0 -- -- 92
2020-11-19 14:00:00 12.1 8 Norte 15 Norte 0 -- -- 94
2020-11-19 13:00:00 12.1 6 Norte 18 Norte 1.2 -- -- 96
2020-11-19 12:00:00 12.5 8 Noroeste 17 Noroeste 0.2 -- -- 98
2020-11-19 11:00:00 12.5 7 Noroeste 18 Norte 0 -- -- 98
2020-11-19 10:00:00 12.4 10 Norte 23 Norte 0.8 -- -- 97
2020-11-19 09:00:00 13 14 Norte 24 Norte 0.4 -- -- 100
2020-11-19 08:00:00 11.9 3 Norte 9 Norte 1 -- -- 100
2020-11-19 07:00:00 11.2 2 Noroeste 6 Norte 0 -- -- 99
2020-11-19 06:00:00 10.9 2 Norte 5 Sudeste 0 -- -- 99
2020-11-19 05:00:00 9.9 0 Calma 4 Noroeste 0 -- -- 99
2020-11-19 04:00:00 9.4 0 Calma 6 Norte 0 -- -- 99
2020-11-19 03:00:00 9.1 0 Calma 5 Sudeste 0 -- -- 98
2020-11-19 02:00:00 9.6 0 Calma 4 Sudeste 0 -- -- 98
2020-11-19 01:00:00 9.8 0 Calma 6 Sudeste 0 -- -- 97
2020-11-19 00:00:00 10.2 0 Calma 5 Sudeste 0 -- -- 97
2020-11-18 23:00:00 10.8 0 Calma 6 Sudeste 0 -- -- 95
2020-11-18 22:00:00 11.6 3 Sudeste 8 Sudeste 0 -- -- 95
2020-11-18 21:00:00 12.6 6 Sudeste 11 Sudeste 0 -- -- 92
2020-11-18 20:00:00 13.2 4 Sudeste 6 Sudeste 0 -- -- 91
2020-11-18 19:00:00 14.2 4 Sudeste 9 Este 0 -- -- 87
2020-11-18 18:00:00 16.1 2 Sudeste 6 Sudeste 0 -- -- 79
2020-11-18 17:00:00 19.4 5 Sudeste 8 Sudeste 0 -- -- 69
2020-11-18 16:00:00 22.3 3 Sur 14 Sudeste 0 -- -- 62
2020-11-18 15:00:00 23 6 Sudeste 16 Sur 0 -- -- 52
2020-11-18 14:00:00 21.7 5 Sudeste 21 Este 0 -- -- 53
2020-11-18 13:00:00 21.3 8 Sudeste 21 Sudeste 0 -- -- 53
2020-11-18 12:00:00 20.8 6 Sudeste 14 Sudeste 0 -- -- 55
2020-11-18 11:00:00 18.1 4 Sudoeste 6 Sudoeste 0 -- -- 66
2020-11-18 10:00:00 14.9 2 Sur 9 Sur 0 -- -- 74
2020-11-18 09:00:00 13.1 3 Sur 18 Este 0 -- -- 74
2020-11-18 08:00:00 13.2 3 Sur 12 Este 0 -- -- 72
2020-11-18 07:00:00 13.5 4 Sudeste 17 Sudeste 0 -- -- 71
2020-11-18 06:00:00 13.9 6 Sudeste 19 Este 0 -- -- 67
2020-11-18 05:00:00 14 4 Sur 18 Este 0 -- -- 67
2020-11-18 04:00:00 14 6 Sur 18 Este 0 -- -- 66
2020-11-18 03:00:00 14.2 6 Sur 31 Este 0 -- -- 65
2020-11-18 02:00:00 14.1 6 Sudeste 23 Este 0 -- -- 67
2020-11-18 01:00:00 13.6 3 Sudeste 18 Este 0 -- -- 71
2020-11-18 00:00:00 11.6 6 Sudeste 19 Este 0 -- -- 82
2020-11-17 23:00:00 9.9 2 Sudoeste 9 Sur 0 -- -- 91
2020-11-17 22:00:00 10.2 3 Sudoeste 8 Sudoeste 0 -- -- 92
2020-11-17 21:00:00 11.1 3 Noroeste 9 Norte 0 -- -- 88
2020-11-17 20:00:00 12.4 3 Noroeste 15 Sudeste 0 -- -- 83
2020-11-17 19:00:00 13.5 5 Sudeste 12 Sur 0 -- -- 79
2020-11-17 18:00:00 14.6 4 Sudeste 9 Sudeste 0 -- -- 80
2020-11-17 17:00:00 18 5 Sudeste 8 Sur 0 -- -- 65
2020-11-17 16:00:00 20.8 4 Sur 9 Sur 0 -- -- 63
2020-11-17 15:00:00 21 6 Sur 12 Sur 0 -- -- 61
2020-11-17 14:00:00 20.3 7 Sur 13 Sur 0 -- -- 59
2020-11-17 13:00:00 18.6 7 Sur 12 Sudeste 0 -- -- 59
2020-11-17 12:00:00 15.1 3 Sudoeste 7 Sur 0 -- -- 78
2020-11-17 11:00:00 10.9 0 Calma 6 Sur 0 -- -- 95
2020-11-17 10:00:00 7.9 4 Sur 7 Sur 0 -- -- 100
2020-11-17 09:00:00 5.9 3 Sudeste 8 Sudeste 0 -- -- 100
2020-11-17 08:00:00 5.8 2 Sudeste 2 Sur 0 -- -- 99
2020-11-17 07:00:00 6.4 3 Este 5 Este 0 -- -- 99
2020-11-17 06:00:00 6.6 3 Sur 6 Sudeste 0 -- -- 99
2020-11-17 05:00:00 6.8 3 Sur 7 Sur 0 -- -- 99
2020-11-17 04:00:00 7.2 4 Sudeste 12 Sudeste 0 -- -- 99
2020-11-17 03:00:00 7.1 5 Sudeste 9 Sudeste 0 -- -- 100
2020-11-17 02:00:00 7.3 0 Calma 8 Sur 0 -- -- 99
2020-11-17 01:00:00 7.7 4 Sudeste 9 Sudeste 0 -- -- 99
2020-11-17 00:00:00 8 0 Calma 6 Sur 0 -- -- 99
2020-11-16 23:00:00 8.2 4 Sudeste 6 Sudeste 0 -- -- 98
2020-11-16 22:00:00 8.5 4 Sudeste 5 Sudeste 0 -- -- 97
2020-11-16 21:00:00 9.1 2 Sudeste 7 Sudeste 0 -- -- 96
2020-11-16 20:00:00 9.7 4 Sudeste 9 Sudeste 0 -- -- 96
2020-11-16 19:00:00 10.7 2 Sudeste 6 Sudeste 0 -- -- 91
2020-11-16 18:00:00 12.2 4 Sudeste 8 Sudeste 0 -- -- 86
2020-11-16 17:00:00 14.8 4 Sudeste 5 Sur 0 -- -- 77
2020-11-16 16:00:00 16 4 Sur 10 Sur 0 -- -- 76
2020-11-16 15:00:00 15.6 2 Nordeste 6 Norte 0 -- -- 71
2020-11-16 14:00:00 15.5 3 Noroeste 10 Oeste 0 -- -- 77
2020-11-16 13:00:00 14.8 3 Norte 10 Oeste 0 -- -- 79
2020-11-16 12:00:00 14.7 5 Sur 8 Sur 0 -- -- 86
2020-11-16 11:00:00 12.7 0 Calma 4 Nordeste 0 -- -- 99
2020-11-16 10:00:00 11.9 0 Calma 11 Noroeste 0.4 -- -- 100
2020-11-16 09:00:00 11.5 0 Calma 4 Sur 0 -- -- 100
2020-11-16 08:00:00 11.5 0 Calma 4 Sudeste 0 -- -- 99
2020-11-16 07:00:00 11.6 0 Calma 5 Noroeste 0.4 -- -- 100
2020-11-16 06:00:00 11.6 0 Calma 6 Oeste 0.6 -- -- 99
2020-11-16 05:00:00 11.8 3 Noroeste 6 Oeste 1 -- -- 99
2020-11-16 04:00:00 11.8 5 Noroeste 15 Noroeste 0.6 -- -- 99
2020-11-16 03:00:00 12.3 2 Sudeste 4 Este 0 -- -- 99
2020-11-16 02:00:00 12.4 0 Calma 4 Sudeste 0 -- -- 99
2020-11-16 01:00:00 12.5 2 Este 6 Oeste 0 -- -- 98
2020-11-16 00:00:00 12.5 3 Sudeste 4 Sur 0.2 -- -- 98
2020-11-15 23:00:00 12.6 4 Este 8 Este 0.2 -- -- 98
2020-11-15 22:00:00 12.8 0 Calma 17 Noroeste 0.4 -- -- 98
2020-11-15 21:00:00 13 5 Noroeste 30 Noroeste 0.2 -- -- 97
2020-11-15 20:00:00 13.7 8 Noroeste 16 Noroeste 1.8 -- -- 98
2020-11-15 19:00:00 14 0 Calma 4 Sudoeste 3 -- -- 97
2020-11-15 18:00:00 14.2 0 Calma 13 Noroeste 0.2 -- -- 95
2020-11-15 17:00:00 14.3 7 Noroeste 22 Noroeste 0.4 -- -- 94
2020-11-15 16:00:00 15.7 11 Noroeste 27 Noroeste 0 -- -- 92
2020-11-15 15:00:00 17.1 17 Noroeste 46 Noroeste 0 -- -- 86
2020-11-15 14:00:00 22.5 13 Sudoeste 47 Sudoeste 0 -- -- 57
2020-11-15 13:00:00 22 13 Sur 39 Sur 0 -- -- 57
2020-11-15 12:00:00 20.9 14 Sur 40 Sur 0 -- -- 60
2020-11-15 11:00:00 20.4 10 Sur 30 Sudeste 0 -- -- 62
2020-11-15 10:00:00 19.5 12 Sudeste 32 Este 0 -- -- 63
2020-11-15 09:00:00 18.6 9 Sudeste 24 Sudeste 0 -- -- 64
2020-11-15 08:00:00 18.5 8 Este 24 Norte 0 -- -- 63
2020-11-15 07:00:00 18 14 Este 30 Este 0 -- -- 66
2020-11-15 06:00:00 18.1 12 Este 32 Este 0 -- -- 64
2020-11-15 05:00:00 17.2 10 Este 35 Este 0 -- -- 67
2020-11-15 04:00:00 16.2 7 Sur 32 Este 0 -- -- 71
2020-11-15 03:00:00 16.6 9 Sudeste 28 Este 0 -- -- 69
2020-11-15 02:00:00 16.4 7 Sudeste 32 Este 0 -- -- 70
2020-11-15 01:00:00 17 12 Este 28 Este 0 -- -- 66
2020-11-15 00:00:00 16.7 10 Sudeste 29 Este 0 -- -- 65
2020-11-14 23:00:00 16.5 11 Este 26 Este 0 -- -- 65
2020-11-14 22:00:00 16.2 9 Sudeste 31 Este 0 -- -- 66
2020-11-14 21:00:00 16.7 9 Este 27 Este 0 -- -- 64
2020-11-14 20:00:00 16.2 6 Sudeste 28 Este 0 -- -- 66
2020-11-14 19:00:00 16.8 9 Este 22 Nordeste 0 -- -- 64
2020-11-14 18:00:00 17.8 8 Sudeste 30 Este 0 -- -- 61
2020-11-14 17:00:00 19.1 12 Este 45 Este 0 -- -- 57
2020-11-14 16:00:00 20.3 8 Sudeste 33 Este 0 -- -- 52
2020-11-14 15:00:00 20.6 7 Este 25 Este 0 -- -- 53
2020-11-14 14:00:00 19.5 11 Este 43 Este 0 -- -- 56
2020-11-14 13:00:00 18.5 21 Este 41 Este 0 -- -- 57
2020-11-14 12:00:00 16.6 17 Este 45 Este 0 -- -- 61
2020-11-14 11:00:00 15.1 10 Sudeste 31 Sudeste 0 -- -- 67
2020-11-14 10:00:00 14.2 9 Sudeste 31 Este 0 -- -- 69
2020-11-14 09:00:00 13.3 12 Sudeste 33 Sudeste 0 -- -- 72
2020-11-14 08:00:00 12.6 11 Sudeste 29 Sudeste 0 -- -- 74
2020-11-14 07:00:00 13 11 Sudeste 38 Sudeste 0 -- -- 73
2020-11-14 06:00:00 12.2 10 Sur 27 Sudeste 0 -- -- 76
2020-11-14 05:00:00 13 10 Sudeste 37 Sudeste 0 -- -- 72
2020-11-14 04:00:00 12.3 10 Sur 27 Sur 0 -- -- 75
2020-11-14 03:00:00 11.6 9 Sudeste 24 Sudeste 0 -- -- 78
2020-11-14 02:00:00 12.1 6 Sudeste 26 Sudeste 0 -- -- 77
2020-11-14 01:00:00 12.2 9 Sur 27 Este 0 -- -- 77
2020-11-14 00:00:00 13 18 Este 32 Este 0 -- -- 73
2020-11-13 23:00:00 13.6 15 Este 27 Este 0 -- -- 70
2020-11-13 22:00:00 13.3 6 Sur 17 Sudeste 0 -- -- 72
2020-11-13 21:00:00 13.4 5 Sur 19 Sudeste 0 -- -- 72
2020-11-13 20:00:00 12.3 4 Sur 14 Sudeste 0 -- -- 78
2020-11-13 19:00:00 12.3 3 Sur 8 Sudeste 0 -- -- 81
2020-11-13 18:00:00 13.7 3 Sudeste 8 Sudeste 0 -- -- 79
2020-11-13 17:00:00 17.2 4 Sur 13 Sudeste 0 -- -- 67
2020-11-13 16:00:00 19.2 5 Sudeste 18 Este 0 -- -- 55
2020-11-13 15:00:00 20.4 8 Sudeste 18 Sudeste 0 -- -- 51
2020-11-13 14:00:00 19.2 9 Este 19 Este 0 -- -- 53
2020-11-13 13:00:00 18.8 8 Sudeste 18 Este 0 -- -- 58
2020-11-13 12:00:00 17.2 6 Sudeste 20 Sudeste 0 -- -- 61
2020-11-13 11:00:00 15.4 6 Sudeste 17 Sudeste 0 -- -- 69
2020-11-13 10:00:00 13.1 4 Sur 12 Este 0 -- -- 77
2020-11-13 09:00:00 12.2 4 Sur 15 Este 0 -- -- 80
2020-11-13 08:00:00 11.4 3 Sur 6 Este 0 -- -- 83
2020-11-13 07:00:00 12.3 3 Noroeste 12 Norte 0 -- -- 78
2020-11-13 06:00:00 11.7 3 Noroeste 6 Oeste 0 -- -- 80
2020-11-13 05:00:00 12.4 2 Noroeste 13 Este 0 -- -- 76
2020-11-13 04:00:00 13 5 Sur 18 Sudeste 0 -- -- 72
2020-11-13 03:00:00 13.9 9 Sur 28 Sur 0 -- -- 68
2020-11-13 02:00:00 14.3 6 Sudeste 24 Sur 0 -- -- 65
2020-11-13 01:00:00 13.6 4 Sudeste 20 Este 0 -- -- 68
2020-11-13 00:00:00 14.1 4 Sudeste 19 Sur 0 -- -- 66
2020-11-12 23:00:00 13.2 5 Sur 15 Sudeste 0 -- -- 70
2020-11-12 22:00:00 12.1 5 Sudoeste 9 Sudoeste 0 -- -- 79
2020-11-12 21:00:00 12.4 3 Noroeste 8 Oeste 0 -- -- 86
2020-11-12 20:00:00 13.5 3 Sudoeste 8 Sudoeste 0 -- -- 79
2020-11-12 19:00:00 14.5 0 Calma 7 Sur 0 -- -- 78
2020-11-12 18:00:00 15.4 3 Sudeste 8 Sur 0 -- -- 80
2020-11-12 17:00:00 19.3 3 Sudeste 8 Sur 0 -- -- 66
2020-11-12 16:00:00 21.9 4 Sur 9 Sudoeste 0 -- -- 57
2020-11-12 15:00:00 22.3 4 Sudoeste 9 Sudoeste 0 -- -- 53
2020-11-12 14:00:00 21.1 2 Oeste 8 Sudoeste 0 -- -- 52
2020-11-12 13:00:00 20.4 4 Sudoeste 10 Sur 0 -- -- 57
2020-11-12 12:00:00 17.5 3 Sur 9 Sur 0 -- -- 69
2020-11-12 11:00:00 13.2 0 Calma 5 Norte 0 -- -- 84
2020-11-12 10:00:00 10.2 3 Noroeste 6 Este 0 -- -- 94
2020-11-12 09:00:00 8.5 0 Calma 3 Sur 0 -- -- 98
2020-11-12 08:00:00 7.6 0 Calma 3 Nordeste 0 -- -- 96
2020-11-12 07:00:00 7.9 0 Calma 8 Sudeste 0 -- -- 95
2020-11-12 06:00:00 8.5 4 Sudeste 8 Sudeste 0 -- -- 94
2020-11-12 05:00:00 8.9 0 Calma 4 Sur 0 -- -- 94
2020-11-12 04:00:00 9.7 2 Nordeste 5 Norte 0 -- -- 92
2020-11-12 03:00:00 10.5 0 Calma 6 Sudeste 0 -- -- 90
2020-11-12 02:00:00 11 3 Sudeste 5 Norte 0 -- -- 88
2020-11-12 01:00:00 10.9 2 Sudeste 8 Sudeste 0 -- -- 88
2020-11-12 00:00:00 10.9 3 Sudeste 4 Este 0 -- -- 88
2020-11-11 23:00:00 11.3 2 Sudeste 9 Sur 0 -- -- 85
2020-11-11 22:00:00 12.2 3 Sudoeste 8 Nordeste 0 -- -- 80
2020-11-11 21:00:00 12.9 3 Sur 14 Sudeste 0 -- -- 74
2020-11-11 20:00:00 14.7 4 Este 22 Este 0 -- -- 66
2020-11-11 19:00:00 15.2 5 Sudeste 14 Sur 0 -- -- 64
2020-11-11 18:00:00 15.4 5 Sudeste 18 Este 0 -- -- 69
2020-11-11 17:00:00 18.2 3 Sudeste 22 Este 0 -- -- 59
2020-11-11 16:00:00 19.2 8 Este 28 Sudoeste 0 -- -- 53
2020-11-11 15:00:00 19.5 6 Sur 22 Este 0 -- -- 55
2020-11-11 14:00:00 19.7 8 Este 26 Este 0 -- -- 51
2020-11-11 13:00:00 17.8 14 Este 31 Este 0 -- -- 57
2020-11-11 12:00:00 16.7 15 Este 31 Este 0 -- -- 61
2020-11-11 11:00:00 15.2 5 Sudeste 27 Este 0 -- -- 69
2020-11-11 10:00:00 13.3 7 Sudeste 27 Este 0 -- -- 75
2020-11-11 09:00:00 8.3 3 Sudoeste 6 Sur 0 -- -- 100
2020-11-11 08:00:00 6.6 3 Norte 6 Norte 0 -- -- 100
2020-11-11 07:00:00 6.6 3 Norte 6 Norte 0 -- -- 100
2020-11-11 06:00:00 6.8 2 Noroeste 5 Nordeste 0 -- -- 100
2020-11-11 05:00:00 7.2 0 Calma 5 Norte 0 -- -- 99
2020-11-11 04:00:00 7.8 0 Calma 3 Sudoeste 0 -- -- 99
2020-11-11 03:00:00 8.5 2 Sudeste 8 Sudeste 0 -- -- 99
2020-11-11 02:00:00 8.7 0 Calma 10 Sudeste 0 -- -- 99
2020-11-11 01:00:00 9.3 4 Sudeste 6 Este 0 -- -- 99
2020-11-11 00:00:00 9.6 4 Sudeste 12 Sudeste 0 -- -- 98
2020-11-10 23:00:00 9.9 4 Sudeste 8 Sudeste 0 -- -- 98
2020-11-10 22:00:00 10.2 4 Sudeste 9 Sudeste 0 -- -- 97
2020-11-10 21:00:00 11 4 Sudeste 10 Sudeste 0 -- -- 97
2020-11-10 20:00:00 11.4 5 Sudeste 8 Sudeste 0 -- -- 95
2020-11-10 19:00:00 12.9 5 Sudeste 8 Este 0 -- -- 93
2020-11-10 18:00:00 13.7 3 Sudeste 5 Sudeste 0 -- -- 90
2020-11-10 17:00:00 15.2 0 Calma 6 Este 0 -- -- 86
2020-11-10 16:00:00 15.9 4 Sudeste 14 Sur 0 -- -- 81
2020-11-10 15:00:00 15.8 0 Calma 12 Norte 0 -- -- 84
2020-11-10 14:00:00 15.7 2 Sur 10 Sudoeste 0 -- -- 84
2020-11-10 13:00:00 17.1 6 Oeste 13 Oeste 0 -- -- 74
2020-11-10 12:00:00 14.9 3 Sudeste 6 Este 0 -- -- 88
2020-11-10 11:00:00 13.6 2 Sudeste 6 Sudeste 0 -- -- 98
2020-11-10 10:00:00 12.4 3 Sur 8 Sudeste 0 -- -- 100
2020-11-10 09:00:00 11.8 4 Sudeste 8 Sudeste 0 -- -- 100
2020-11-10 08:00:00 11.4 2 Sur 4 Sudeste 0 -- -- 99
2020-11-10 07:00:00 11.2 0 Calma 4 Sudeste 1.2 -- -- 99
2020-11-10 06:00:00 11 2 Este 4 Nordeste 4.4 -- -- 99
2020-11-10 05:00:00 10.9 4 Noroeste 8 Oeste 0.8 -- -- 97
2020-11-10 04:00:00 10.6 0 Calma 3 Sur 0 -- -- 96
2020-11-10 03:00:00 10.3 0 Calma 4 Sudeste 0 -- -- 96
2020-11-10 02:00:00 10 0 Calma 3 Este 0 -- -- 95
2020-11-10 01:00:00 9.9 3 Sudeste 6 Sudeste 0 -- -- 96
2020-11-10 00:00:00 9.8 0 Calma 5 Sudeste 0 -- -- 94
2020-11-09 23:00:00 10.7 4 Sudeste 8 Sudeste 0 -- -- 92
2020-11-09 22:00:00 11.3 0 Calma 4 Este 0 -- -- 89
2020-11-09 21:00:00 12.5 0 Calma 10 Sudeste 0 -- -- 86
2020-11-09 20:00:00 13.8 0 Calma 4 Sudoeste 0 -- -- 80
2020-11-09 19:00:00 14.7 3 Oeste 9 Noroeste 0 -- -- 75
2020-11-09 18:00:00 16.1 7 Norte 12 Norte 0 -- -- 66
2020-11-09 17:00:00 20 5 Sudeste 14 Oeste 0 -- -- 54
2020-11-09 16:00:00 21.6 6 Oeste 16 Oeste 0 -- -- 47
2020-11-09 15:00:00 21.5 10 Sudoeste 21 Sudoeste 0 -- -- 49
2020-11-09 14:00:00 20.8 11 Sudoeste 25 Oeste 0 -- -- 52
2020-11-09 13:00:00 20 11 Sudoeste 30 Oeste 0 -- -- 53
2020-11-09 12:00:00 19.7 8 Oeste 23 Sudeste 0 -- -- 53
2020-11-09 11:00:00 17.7 10 Este 24 Este 0 -- -- 62
2020-11-09 10:00:00 15.8 8 Este 23 Este 0 -- -- 69
2020-11-09 09:00:00 14.7 4 Sudeste 17 Sudeste 0 -- -- 72
2020-11-09 08:00:00 14.5 5 Sudeste 15 Sudeste 0 -- -- 72
2020-11-09 07:00:00 14.4 6 Sudeste 16 Este 0 -- -- 74
2020-11-09 06:00:00 14 4 Sur 12 Sudeste 0 -- -- 80
2020-11-09 05:00:00 15.6 3 Sudeste 25 Este 0 -- -- 70
2020-11-09 04:00:00 15.6 13 Este 23 Sudeste 0 -- -- 68
2020-11-09 03:00:00 16.3 5 Este 26 Este 0 -- -- 65
2020-11-09 02:00:00 17.1 16 Este 36 Este 0 -- -- 62
2020-11-09 01:00:00 16.6 3 Nordeste 34 Este 0 -- -- 65
2020-11-09 00:00:00 17 12 Sudeste 36 Este 0 -- -- 63
2020-11-08 23:00:00 18 9 Sudeste 31 Sur 0 -- -- 59
2020-11-08 22:00:00 17.1 6 Sur 27 Sudeste 0 -- -- 65
2020-11-08 21:00:00 17.6 14 Sudeste 33 Este 0 -- -- 61
2020-11-08 20:00:00 17.6 13 Sudeste 28 Sudeste 0 -- -- 64
2020-11-08 19:00:00 18 6 Sudeste 33 Sudeste 0 -- -- 64
2020-11-08 18:00:00 18.2 12 Sudeste 28 Sudeste 0 -- -- 61
2020-11-08 17:00:00 18.9 10 Sudeste 26 Sudeste 0 -- -- 58
2020-11-08 16:00:00 20.2 11 Sudeste 27 Sudeste 0 -- -- 53
2020-11-08 15:00:00 20.8 9 Sudeste 32 Sudeste 0 -- -- 52
2020-11-08 14:00:00 20.5 9 Sudeste 31 Sudeste 0 -- -- 54
2020-11-08 13:00:00 20.2 13 Sudeste 31 Sudeste 0 -- -- 52
2020-11-08 12:00:00 19.1 12 Sudeste 37 Sudeste 0 -- -- 55
2020-11-08 11:00:00 18.8 14 Sudeste 32 Sudeste 0 -- -- 54
2020-11-08 10:00:00 16.9 16 Este 34 Este 0 -- -- 60
2020-11-08 09:00:00 16.1 12 Este 28 Este 0 -- -- 63
2020-11-08 08:00:00 14.8 3 Oeste 33 Este 0 -- -- 69
2020-11-08 07:00:00 16.2 8 Sudeste 23 Sudeste 0 -- -- 64
2020-11-08 06:00:00 13.7 6 Sur 33 Este 0 -- -- 77
2020-11-08 05:00:00 12.9 4 Sur 11 Este 0 -- -- 81
2020-11-08 04:00:00 13.2 5 Sudeste 12 Sudeste 0 -- -- 80
2020-11-08 03:00:00 12.4 4 Sudeste 9 Este 0 -- -- 86
2020-11-08 02:00:00 11 3 Sudeste 8 Este 0 -- -- 93
2020-11-08 01:00:00 10.5 2 Norte 6 Norte 0 -- -- 94
2020-11-08 00:00:00 11.2 2 Sudoeste 9 Noroeste 0 -- -- 91
2020-11-07 23:00:00 12.1 2 Sudoeste 8 Sudoeste 0 -- -- 88
2020-11-07 22:00:00 12.6 4 Sur 11 Sudeste 0 -- -- 87
2020-11-07 21:00:00 13 3 Oeste 10 Sudeste 0 -- -- 85
2020-11-07 20:00:00 15.1 5 Sudeste 24 Sudoeste 0 -- -- 76
2020-11-07 19:00:00 17.4 7 Sur 27 Sur 0 -- -- 63
2020-11-07 18:00:00 18.3 14 Sudoeste 24 Sur 0 -- -- 61
2020-11-07 17:00:00 19.1 8 Este 20 Este 0 -- -- 62
2020-11-07 16:00:00 18.5 7 Sudeste 20 Este 0 -- -- 69
2020-11-07 15:00:00 18.6 6 Este 17 Sudeste 0 -- -- 70
2020-11-07 14:00:00 18.2 8 Sudeste 24 Este 0 -- -- 71
2020-11-07 13:00:00 17.4 6 Sudeste 21 Este 0 -- -- 76
2020-11-07 12:00:00 16.1 3 Este 20 Este 0 -- -- 87
2020-11-07 11:00:00 14.4 6 Sur 10 Sur 0 -- -- 98
2020-11-07 10:00:00 13.8 3 Sur 7 Nordeste 0 -- -- 98
2020-11-07 09:00:00 13.6 4 Sur 13 Sudeste 3.8 -- -- 97
2020-11-07 08:00:00 13.7 3 Sudeste 32 Sur 6.4 -- -- 96
2020-11-07 07:00:00 15.4 13 Sudoeste 38 Sudoeste 4 -- -- 84
2020-11-07 06:00:00 19.4 6 Sudeste 26 Sudeste 0 -- -- 69
2020-11-07 05:00:00 19.7 13 Sudeste 40 Sudeste 0 -- -- 66
2020-11-07 04:00:00 19.8 19 Sudeste 45 Sur 0 -- -- 65
2020-11-07 03:00:00 19.8 20 Sudeste 47 Sudeste 0 -- -- 65
2020-11-07 02:00:00 19.7 15 Sudeste 44 Sudeste 0 -- -- 65
2020-11-07 01:00:00 19.7 18 Sudeste 54 Sudeste 0 -- -- 65
2020-11-07 00:00:00 20.1 23 Sudeste 68 Sudeste 0 -- -- 64
2020-11-06 23:00:00 20.4 36 Sudeste 65 Sudeste 0 -- -- 63
2020-11-06 22:00:00 20.4 26 Sudeste 56 Sur 0 -- -- 62
2020-11-06 21:00:00 20.2 18 Sudeste 75 Sudeste 0 -- -- 63
2020-11-06 20:00:00 20.7 28 Sudeste 81 Sudeste 0 -- -- 62
2020-11-06 19:00:00 20.5 23 Sudeste 53 Este 0 -- -- 63
2020-11-06 18:00:00 20.1 15 Sudeste 49 Sudeste 0 -- -- 65
2020-11-06 17:00:00 20.2 22 Sudeste 54 Sudeste 0 -- -- 64
2020-11-06 16:00:00 20.6 15 Sudeste 62 Sur 0 -- -- 61
2020-11-06 15:00:00 21.2 30 Sudeste 63 Sur 0 -- -- 58
2020-11-06 14:00:00 21.3 16 Sudeste 45 Este 0 -- -- 60
2020-11-06 13:00:00 20.6 12 Sudeste 54 Sur 0 -- -- 62
2020-11-06 12:00:00 20.5 19 Sudeste 65 Sur 0 -- -- 61
2020-11-06 11:00:00 20.4 26 Sudeste 67 Sudeste 0 -- -- 63
2020-11-06 10:00:00 19.4 31 Sudeste 54 Sudeste 0 -- -- 65
2020-11-06 09:00:00 18.1 13 Sudeste 53 Sudeste 0 -- -- 69
2020-11-06 08:00:00 18.1 26 Sudeste 57 Sudeste 0 -- -- 68
2020-11-06 07:00:00 18.1 27 Sudeste 67 Sur 0 -- -- 68
2020-11-06 06:00:00 17.9 26 Sudeste 69 Este 0 -- -- 69
2020-11-06 05:00:00 17.2 13 Sudeste 51 Sudeste 0 -- -- 72
2020-11-06 04:00:00 17.2 18 Este 51 Este 0 -- -- 71
2020-11-06 03:00:00 17.2 19 Sudeste 64 Sur 0 -- -- 70
2020-11-06 02:00:00 17.4 15 Sudeste 45 Sudeste 0 -- -- 68
2020-11-06 01:00:00 16.7 6 Sudeste 21 Sudeste 0 -- -- 71
2020-11-06 00:00:00 16.9 8 Sudeste 24 Sudeste 0 -- -- 70
2020-11-05 23:00:00 15.2 8 Sudeste 26 Sudeste 0 -- -- 77
2020-11-05 22:00:00 11.3 4 Norte 10 Noroeste 0 -- -- 91
2020-11-05 21:00:00 10.9 3 Oeste 7 Oeste 0 -- -- 91
2020-11-05 20:00:00 11.8 2 Noroeste 6 Noroeste 0 -- -- 86
2020-11-05 19:00:00 12.8 0 Calma 10 Noroeste 0 -- -- 82
2020-11-05 18:00:00 14.2 2 Noroeste 9 Nordeste 0 -- -- 79
2020-11-05 17:00:00 16.5 4 Oeste 13 Noroeste 0 -- -- 71
2020-11-05 16:00:00 17.1 8 Noroeste 21 Norte 0 -- -- 67
2020-11-05 15:00:00 18.9 9 Noroeste 18 Sur 0 -- -- 60
2020-11-05 14:00:00 18.6 6 Sudeste 20 Este 0 -- -- 59
2020-11-05 13:00:00 16.4 8 Este 16 Este 0 -- -- 64
2020-11-05 12:00:00 14.6 7 Sudeste 18 Sudeste 0 -- -- 67
2020-11-05 11:00:00 11.2 5 Este 17 Este 0 -- -- 78
2020-11-05 10:00:00 8.2 7 Sudeste 12 Sudeste 0 -- -- 92
2020-11-05 09:00:00 6 3 Sur 8 Sudeste 0 -- -- 97
2020-11-05 08:00:00 5.9 4 Sur 8 Sur 0 -- -- 96
2020-11-05 07:00:00 6.5 3 Sudeste 8 Este 0 -- -- 95
2020-11-05 06:00:00 6.4 2 Sur 9 Este 0 -- -- 95
2020-11-05 05:00:00 6.9 3 Sudeste 5 Sur 0 -- -- 92
2020-11-05 04:00:00 8 3 Sur 4 Sur 0 -- -- 89
2020-11-05 03:00:00 8.8 0 Calma 5 Este 0 -- -- 85
2020-11-05 02:00:00 9 2 Este 5 Sudeste 0 -- -- 83
2020-11-05 01:00:00 9.6 4 Este 6 Este 0 -- -- 77
2020-11-05 00:00:00 9.8 0 Calma 10 Este 0 -- -- 78
2020-11-04 23:00:00 10.4 4 Sudeste 13 Este 0 -- -- 73
2020-11-04 22:00:00 10.1 3 Este 7 Sur 0 -- -- 78
2020-11-04 21:00:00 10.3 4 Este 9 Este 0 -- -- 77
2020-11-04 20:00:00 10.5 3 Sudeste 8 Este 0 -- -- 78
2020-11-04 19:00:00 10.7 0 Calma 14 Este 0 -- -- 76
2020-11-04 18:00:00 11.1 7 Este 16 Este 0 -- -- 70
2020-11-04 17:00:00 11.4 9 Nordeste 19 Este 0 -- -- 68
2020-11-04 16:00:00 11.8 7 Nordeste 26 Este 0 -- -- 69
2020-11-04 15:00:00 11.9 9 Nordeste 26 Este 0 -- -- 68
2020-11-04 14:00:00 12.1 9 Nordeste 28 Este 0 -- -- 65
2020-11-04 13:00:00 11.3 13 Nordeste 26 Nordeste 0 -- -- 73
2020-11-04 12:00:00 11.4 5 Norte 14 Oeste 0 -- -- 85
2020-11-04 11:00:00 10.1 6 Noroeste 12 Noroeste 0 -- -- 93
2020-11-04 10:00:00 8.6 6 Noroeste 10 Noroeste 0 -- -- 99
2020-11-04 09:00:00 8.1 0 Calma 4 Sudeste 0 -- -- 100
2020-11-04 08:00:00 7.9 2 Sur 6 Noroeste 0.2 -- -- 100
2020-11-04 07:00:00 7.8 3 Noroeste 9 Norte 0.2 -- -- 100
2020-11-04 06:00:00 7.8 2 Oeste 12 Noroeste 0 -- -- 100
2020-11-04 05:00:00 7.8 4 Norte 10 Noroeste 0.6 -- -- 100
2020-11-04 04:00:00 7.7 4 Nordeste 6 Nordeste 0.2 -- -- 100
2020-11-04 03:00:00 7.7 3 Este 7 Este 0 -- -- 100
2020-11-04 02:00:00 8 0 Calma 10 Este 1.6 -- -- 100
2020-11-04 01:00:00 8.2 3 Norte 11 Norte 0.4 -- -- 100
2020-11-04 00:00:00 7.8 3 Sur 7 Este 0 -- -- 99
2020-11-03 23:00:00 8.3 4 Sudeste 7 Sudeste 0 -- -- 99
2020-11-03 22:00:00 8.8 3 Sudeste 6 Este 0.2 -- -- 97
2020-11-03 21:00:00 9.7 0 Calma 5 Norte 0.4 -- -- 97
2020-11-03 20:00:00 10.1 0 Calma 12 Norte 0.4 -- -- 94
2020-11-03 19:00:00 10.5 0 Calma 12 Oeste 0 -- -- 88
2020-11-03 18:00:00 11.2 14 Oeste 21 Oeste 0 -- -- 84
2020-11-03 17:00:00 11.7 8 Oeste 14 Oeste 0 -- -- 89
2020-11-03 16:00:00 12 8 Oeste 21 Oeste 0 -- -- 91
2020-11-03 15:00:00 11.6 17 Oeste 25 Oeste 0.2 -- -- 93
2020-11-03 14:00:00 12 5 Norte 27 Noroeste 0 -- -- 92
2020-11-03 13:00:00 11.8 15 Noroeste 27 Oeste 0.6 -- -- 97
2020-11-03 12:00:00 12.8 10 Oeste 16 Oeste 0.8 -- -- 94
2020-11-03 11:00:00 12 0 Calma 4 Sur 0 -- -- 99
2020-11-03 10:00:00 11.7 0 Calma 2 Sudoeste 0 -- -- 100
2020-11-03 09:00:00 11.2 0 Calma 5 Este 0 -- -- 100
2020-11-03 08:00:00 11 2 Este 4 Sudeste 0.8 -- -- 100
2020-11-03 07:00:00 10.8 3 Norte 7 Norte 0.8 -- -- 99
2020-11-03 06:00:00 11 2 Norte 7 Norte 0 -- -- 99
2020-11-03 05:00:00 11.1 3 Noroeste 12 Oeste 0.4 -- -- 98
2020-11-03 04:00:00 11.2 5 Oeste 18 Oeste 0.6 -- -- 98
2020-11-03 03:00:00 11.7 9 Noroeste 19 Noroeste 3.2 -- -- 99
2020-11-03 02:00:00 11.7 0 Calma 8 Norte 1.8 -- -- 98
2020-11-03 01:00:00 11.7 4 Oeste 13 Noroeste 1 -- -- 99
2020-11-03 00:00:00 12.1 6 Oeste 13 Noroeste 1.2 -- -- 99
2020-11-02 23:00:00 12.6 7 Noroeste 14 Noroeste 1.6 -- -- 98
2020-11-02 22:00:00 12.9 8 Noroeste 14 Noroeste 0.6 -- -- 96
2020-11-02 21:00:00 13.7 4 Este 8 Este 0 -- -- 94
2020-11-02 20:00:00 14 0 Calma 8 Noroeste 0 -- -- 91
2020-11-02 19:00:00 14 6 Oeste 27 Noroeste 0 -- -- 92
2020-11-02 18:00:00 14.7 13 Oeste 30 Oeste 0 -- -- 87
2020-11-02 17:00:00 15.5 13 Noroeste 36 Oeste 0 -- -- 86
2020-11-02 16:00:00 16.6 21 Noroeste 55 Oeste 0 -- -- 89
2020-11-02 15:00:00 19.5 35 Noroeste 57 Noroeste 0 -- -- 78
2020-11-02 14:00:00 25 3 Sudoeste 14 Este 0 -- -- 52
2020-11-02 13:00:00 24 4 Sudeste 12 Sudeste 0 -- -- 56
2020-11-02 12:00:00 21.8 4 Nordeste 18 Sur 0 -- -- 61
2020-11-02 11:00:00 19.4 6 Sudeste 13 Este 0 -- -- 81
2020-11-02 10:00:00 16.4 0 Calma 9 Este 0 -- -- 89
2020-11-02 09:00:00 15.3 3 Sudoeste 16 Sudeste 0 -- -- 90
2020-11-02 08:00:00 14.5 6 Sudeste 12 Este 0 -- -- 93
2020-11-02 07:00:00 13.6 3 Noroeste 10 Sur 0 -- -- 95
2020-11-02 06:00:00 13.4 5 Norte 13 Oeste 0 -- -- 95
2020-11-02 05:00:00 13.7 3 Noroeste 8 Este 0 -- -- 94
2020-11-02 04:00:00 13.9 3 Norte 13 Sudeste 0 -- -- 93
2020-11-02 03:00:00 14.3 3 Sudeste 11 Sur 0 -- -- 93
2020-11-02 02:00:00 14.9 3 Sur 12 Sudeste 0 -- -- 90
2020-11-02 01:00:00 15.1 3 Sudoeste 10 Sudoeste 0 -- -- 91
2020-11-02 00:00:00 15.5 5 Sur 14 Este 0 -- -- 89
2020-11-01 23:00:00 16.2 4 Sudeste 11 Este 0 -- -- 86
2020-11-01 22:00:00 15.8 5 Sudeste 12 Sudoeste 0 -- -- 88
2020-11-01 21:00:00 16.5 3 Norte 8 Sur 0 -- -- 85
2020-11-01 20:00:00 17.6 6 Sur 8 Sur 0 -- -- 81
2020-11-01 19:00:00 17.9 3 Sur 8 Sudeste 0 -- -- 83
2020-11-01 18:00:00 19.8 3 Sur 12 Este 0 -- -- 79
2020-11-01 17:00:00 22.9 3 Sur 9 Sur 0 -- -- 71
2020-11-01 16:00:00 24.1 3 Sudoeste 13 Sudeste 0 -- -- 64
2020-11-01 15:00:00 24 4 Este 15 Este 0 -- -- 59
2020-11-01 14:00:00 24.7 4 Este 12 Este 0 -- -- 57
2020-11-01 13:00:00 23.9 6 Este 24 Este 0 -- -- 58
2020-11-01 12:00:00 22.8 5 Sudeste 10 Sudeste 0 -- -- 63
2020-11-01 11:00:00 19.1 4 Sudeste 8 Sudeste 0 -- -- 75
2020-11-01 10:00:00 15.4 2 Noroeste 10 Sudeste 0 -- -- 91
2020-11-01 09:00:00 13.5 3 Sudeste 6 Sudeste 0 -- -- 95
2020-11-01 08:00:00 12.7 0 Calma 5 Sudoeste 0 -- -- 95
2020-11-01 07:00:00 12.5 3 Este 8 Sudeste 0 -- -- 95
2020-11-01 06:00:00 12 2 Sur 6 Noroeste 0 -- -- 95
2020-11-01 05:00:00 12.3 3 Sudeste 10 Sudeste 0 -- -- 96
2020-11-01 04:00:00 11.8 0 Calma 8 Norte 0 -- -- 97
2020-11-01 03:00:00 11.9 2 Sudeste 8 Este 0 -- -- 95
2020-11-01 02:00:00 11.8 2 Oeste 7 Este 0 -- -- 95
2020-11-01 01:00:00 12.1 0 Calma 10 Sudoeste 0 -- -- 95
2020-11-01 00:00:00 12.3 3 Sur 8 Sudeste 0 -- -- 94
2020-10-31 23:00:00 12.7 3 Noroeste 9 Sudeste 0 -- -- 92
2020-10-31 22:00:00 13 0 Calma 10 Sur 0 -- -- 92
2020-10-31 21:00:00 13.6 2 Sur 8 Sudeste 0 -- -- 92
2020-10-31 20:00:00 15 0 Calma 6 Este 0 -- -- 86
2020-10-31 19:00:00 16.6 0 Calma 6 Sudeste 0 -- -- 81
2020-10-31 18:00:00 19.1 3 Sudeste 9 Sudeste 0 -- -- 70
2020-10-31 17:00:00 23.8 3 Sur 10 Sur 0 -- -- 57
2020-10-31 16:00:00 25.3 4 Sudeste 16 Este 0 -- -- 47
2020-10-31 15:00:00 25.2 6 Sur 19 Oeste 0 -- -- 43
2020-10-31 14:00:00 23.7 6 Sudoeste 22 Nordeste 0 -- -- 46
2020-10-31 13:00:00 22.8 9 Este 18 Este 0 -- -- 51
2020-10-31 12:00:00 22 11 Este 27 Sudeste 0 -- -- 54
2020-10-31 11:00:00 20 10 Este 23 Este 0 -- -- 58
2020-10-31 10:00:00 15.8 3 Sudoeste 11 Sudeste 0 -- -- 79
2020-10-31 09:00:00 11.6 3 Oeste 11 Este 0 -- -- 91
2020-10-31 08:00:00 9.6 4 Noroeste 13 Sudeste 0 -- -- 98
2020-10-31 07:00:00 9.2 3 Sudeste 10 Oeste 0 -- -- 100
2020-10-31 06:00:00 8.5 4 Sur 10 Este 0 -- -- 100
2020-10-31 05:00:00 8.9 3 Sudeste 10 Este 0 -- -- 100
2020-10-31 04:00:00 8.4 3 Nordeste 11 Sudoeste 0 -- -- 100
2020-10-31 03:00:00 8.8 0 Calma 10 Este 0 -- -- 100
2020-10-31 02:00:00 9.3 6 Sudeste 12 Sudeste 0 -- -- 100
2020-10-31 01:00:00 10.1 2 Sur 11 Este 0 -- -- 100
2020-10-31 00:00:00 10.5 3 Sudeste 10 Sudoeste 0 -- -- 99
2020-10-30 23:00:00 10.6 5 Sudeste 9 Sudeste 0 -- -- 99
2020-10-30 22:00:00 10.6 2 Sudeste 5 Este 0 -- -- 97
2020-10-30 21:00:00 11.4 0 Calma 3 Sudeste 0 -- -- 95
2020-10-30 20:00:00 12.7 0 Calma 4 Oeste 0 -- -- 93
2020-10-30 19:00:00 14.2 3 Oeste 10 Noroeste 0 -- -- 89
2020-10-30 18:00:00 15.8 5 Noroeste 17 Norte 0 -- -- 83
2020-10-30 17:00:00 18 9 Norte 17 Oeste 0 -- -- 76
2020-10-30 16:00:00 20.5 9 Noroeste 20 Noroeste 0 -- -- 70
2020-10-30 15:00:00 22.4 13 Noroeste 19 Noroeste 0 -- -- 64
2020-10-30 14:00:00 22.9 5 Oeste 9 Noroeste 0 -- -- 52
2020-10-30 13:00:00 20.7 3 Oeste 7 Noroeste 0 -- -- 58
2020-10-30 12:00:00 17.7 3 Noroeste 8 Oeste 0 -- -- 71
2020-10-30 11:00:00 13.1 2 Noroeste 5 Norte 0 -- -- 98
2020-10-30 10:00:00 9.5 0 Calma 3 Sudoeste 0 -- -- 100
2020-10-30 09:00:00 6.7 0 Calma 4 Nordeste 0 -- -- 100
2020-10-30 08:00:00 5.9 0 Calma 4 Noroeste 0 -- -- 100
2020-10-30 07:00:00 5.9 0 Calma 5 Noroeste 0 -- -- 100
2020-10-30 06:00:00 6 0 Calma 5 Sur 0 -- -- 100
2020-10-30 05:00:00 6.4 0 Calma 3 Este 0 -- -- 99
2020-10-30 04:00:00 6.7 0 Calma 4 Sudeste 0 -- -- 99
2020-10-30 03:00:00 7.2 0 Calma 3 Nordeste 0 -- -- 98
2020-10-30 02:00:00 7.7 0 Calma 5 Sudoeste 0 -- -- 98
2020-10-30 01:00:00 8.3 0 Calma 3 Nordeste 0 -- -- 98
2020-10-30 00:00:00 9 0 Calma 3 Sur 0 -- -- 97